sensor_id;sensor_type;location;lat;lon;timestamp;pressure;altitude;pressure_sealevel;temperature;humidity
60920;BME280;59039;52.108;19.942;2023-03-14T00:00:14;98889.58;;;10.57;68.93
60920;BME280;59039;52.108;19.942;2023-03-14T00:02:40;98891.80;;;10.57;68.81
60920;BME280;59039;52.108;19.942;2023-03-14T00:05:06;98893.48;;;10.57;69.66
60920;BME280;59039;52.108;19.942;2023-03-14T00:07:37;98896.83;;;10.56;68.21
60920;BME280;59039;52.108;19.942;2023-03-14T00:10:04;98895.69;;;10.55;68.06
60920;BME280;59039;52.108;19.942;2023-03-14T00:12:31;98890.75;;;10.54;70.19
60920;BME280;59039;52.108;19.942;2023-03-14T00:14:56;98896.21;;;10.53;69.63
60920;BME280;59039;52.108;19.942;2023-03-14T00:17:21;98901.43;;;10.53;70.24
60920;BME280;59039;52.108;19.942;2023-03-14T00:19:47;98902.00;;;10.51;70.63
60920;BME280;59039;52.108;19.942;2023-03-14T00:22:12;98899.65;;;10.50;70.31
60920;BME280;59039;52.108;19.942;2023-03-14T00:24:37;98888.98;;;10.48;70.88
60920;BME280;59039;52.108;19.942;2023-03-14T00:27:03;98883.46;;;10.44;69.96
60920;BME280;59039;52.108;19.942;2023-03-14T00:29:31;98885.77;;;10.42;69.45
60920;BME280;59039;52.108;19.942;2023-03-14T00:31:59;98885.48;;;10.38;68.33
60920;BME280;59039;52.108;19.942;2023-03-14T00:34:28;98880.18;;;10.36;68.35
60920;BME280;59039;52.108;19.942;2023-03-14T00:36:54;98877.77;;;10.33;68.71
60920;BME280;59039;52.108;19.942;2023-03-14T00:39:22;98871.52;;;10.31;69.02
60920;BME280;59039;52.108;19.942;2023-03-14T00:41:48;98868.21;;;10.28;68.30
60920;BME280;59039;52.108;19.942;2023-03-14T00:44:13;98872.61;;;10.27;69.50
60920;BME280;59039;52.108;19.942;2023-03-14T00:46:39;98874.05;;;10.23;69.46
60920;BME280;59039;52.108;19.942;2023-03-14T00:49:04;98875.84;;;10.21;69.07
60920;BME280;59039;52.108;19.942;2023-03-14T00:51:29;98870.30;;;10.19;70.84
60920;BME280;59039;52.108;19.942;2023-03-14T00:53:55;98866.34;;;10.16;70.54
60920;BME280;59039;52.108;19.942;2023-03-14T00:56:20;98864.67;;;10.13;70.28
60920;BME280;59039;52.108;19.942;2023-03-14T00:58:46;98862.92;;;10.10;71.00
60920;BME280;59039;52.108;19.942;2023-03-14T01:01:17;98859.31;;;10.05;70.60
60920;BME280;59039;52.108;19.942;2023-03-14T01:03:43;98858.05;;;10.00;70.28
60920;BME280;59039;52.108;19.942;2023-03-14T01:06:13;98850.88;;;9.97;70.35
60920;BME280;59039;52.108;19.942;2023-03-14T01:08:39;98848.30;;;9.95;69.95
60920;BME280;59039;52.108;19.942;2023-03-14T01:11:09;98847.00;;;9.92;69.87
60920;BME280;59039;52.108;19.942;2023-03-14T01:13:36;98843.34;;;9.90;69.82
60920;BME280;59039;52.108;19.942;2023-03-14T01:16:06;98840.45;;;9.87;69.76
60920;BME280;59039;52.108;19.942;2023-03-14T01:18:35;98836.91;;;9.83;69.93
60920;BME280;59039;52.108;19.942;2023-03-14T01:21:02;98836.10;;;9.79;70.30
60920;BME280;59039;52.108;19.942;2023-03-14T01:23:27;98836.91;;;9.74;69.81
60920;BME280;59039;52.108;19.942;2023-03-14T01:25:53;98840.29;;;9.70;71.27
60920;BME280;59039;52.108;19.942;2023-03-14T01:28:21;98836.73;;;9.67;70.74
60920;BME280;59039;52.108;19.942;2023-03-14T01:30:47;98830.55;;;9.63;70.30
60920;BME280;59039;52.108;19.942;2023-03-14T01:33:12;98818.65;;;9.59;70.13
60920;BME280;59039;52.108;19.942;2023-03-14T01:35:40;98809.13;;;9.56;70.89
60920;BME280;59039;52.108;19.942;2023-03-14T01:38:06;98811.94;;;9.51;70.10
60920;BME280;59039;52.108;19.942;2023-03-14T01:40:31;98817.31;;;9.45;70.20
60920;BME280;59039;52.108;19.942;2023-03-14T01:43:00;98817.95;;;9.39;70.51
60920;BME280;59039;52.108;19.942;2023-03-14T01:45:55;98814.86;;;9.34;70.83
60920;BME280;59039;52.108;19.942;2023-03-14T01:49:11;98810.02;;;9.28;70.46
60920;BME280;59039;52.108;19.942;2023-03-14T01:51:49;98800.09;;;9.22;70.18
60920;BME280;59039;52.108;19.942;2023-03-14T01:54:24;98794.96;;;9.16;69.51
60920;BME280;59039;52.108;19.942;2023-03-14T01:56:59;98787.11;;;9.12;70.27
60920;BME280;59039;52.108;19.942;2023-03-14T01:59:30;98784.02;;;9.09;69.69
60920;BME280;59039;52.108;19.942;2023-03-14T02:01:57;98784.83;;;9.07;70.59
60920;BME280;59039;52.108;19.942;2023-03-14T02:04:27;98783.52;;;9.06;71.29
60920;BME280;59039;52.108;19.942;2023-03-14T02:07:03;98778.16;;;9.06;71.33
60920;BME280;59039;52.108;19.942;2023-03-14T02:09:31;98776.20;;;9.06;70.36
60920;BME280;59039;52.108;19.942;2023-03-14T02:14:37;98780.02;;;9.07;71.99
60920;BME280;59039;52.108;19.942;2023-03-14T02:17:05;98779.96;;;9.06;71.37
60920;BME280;59039;52.108;19.942;2023-03-14T02:22:42;98772.80;;;9.04;70.73
60920;BME280;59039;52.108;19.942;2023-03-14T02:27:53;98777.38;;;9.03;70.78
60920;BME280;59039;52.108;19.942;2023-03-14T02:30:25;98772.85;;;9.02;71.27
60920;BME280;59039;52.108;19.942;2023-03-14T02:32:55;98781.14;;;9.00;71.35
60920;BME280;59039;52.108;19.942;2023-03-14T02:35:27;98789.14;;;8.98;70.68
60920;BME280;59039;52.108;19.942;2023-03-14T02:38:06;98790.75;;;8.97;70.62
60920;BME280;59039;52.108;19.942;2023-03-14T02:40:34;98792.05;;;8.97;71.26
60920;BME280;59039;52.108;19.942;2023-03-14T02:43:00;98794.11;;;8.96;71.84
60920;BME280;59039;52.108;19.942;2023-03-14T02:45:36;98789.09;;;8.94;71.17
60920;BME280;59039;52.108;19.942;2023-03-14T02:48:06;98782.45;;;8.94;70.69
60920;BME280;59039;52.108;19.942;2023-03-14T02:50:33;98775.92;;;8.93;70.48
60920;BME280;59039;52.108;19.942;2023-03-14T02:52:59;98773.95;;;8.92;70.70
60920;BME280;59039;52.108;19.942;2023-03-14T02:55:24;98761.36;;;8.92;72.15
60920;BME280;59039;52.108;19.942;2023-03-14T02:57:50;98755.60;;;8.90;71.76
60920;BME280;59039;52.108;19.942;2023-03-14T03:00:16;98744.63;;;8.89;71.52
60920;BME280;59039;52.108;19.942;2023-03-14T03:02:41;98743.74;;;8.87;71.07
60920;BME280;59039;52.108;19.942;2023-03-14T03:05:07;98733.02;;;8.86;71.94
60920;BME280;59039;52.108;19.942;2023-03-14T03:07:32;98725.55;;;8.84;70.44
60920;BME280;59039;52.108;19.942;2023-03-14T03:09:58;98719.31;;;8.82;71.30
60920;BME280;59039;52.108;19.942;2023-03-14T03:12:24;98724.30;;;8.81;71.02
60920;BME280;59039;52.108;19.942;2023-03-14T03:14:49;98717.27;;;8.79;71.02
60920;BME280;59039;52.108;19.942;2023-03-14T03:17:14;98715.40;;;8.76;71.40
60920;BME280;59039;52.108;19.942;2023-03-14T03:19:40;98716.66;;;8.73;71.35
60920;BME280;59039;52.108;19.942;2023-03-14T03:22:06;98716.92;;;8.71;71.65
60920;BME280;59039;52.108;19.942;2023-03-14T03:24:31;98709.35;;;8.70;72.05
60920;BME280;59039;52.108;19.942;2023-03-14T03:26:57;98710.69;;;8.67;71.82
60920;BME280;59039;52.108;19.942;2023-03-14T03:29:22;98708.47;;;8.66;70.36
60920;BME280;59039;52.108;19.942;2023-03-14T03:31:51;98703.63;;;8.66;72.16
60920;BME280;59039;52.108;19.942;2023-03-14T03:34:16;98698.27;;;8.64;71.20
60920;BME280;59039;52.108;19.942;2023-03-14T03:36:41;98694.99;;;8.63;71.67
60920;BME280;59039;52.108;19.942;2023-03-14T03:39:13;98696.56;;;8.62;71.24
60920;BME280;59039;52.108;19.942;2023-03-14T03:41:38;98698.92;;;8.62;70.97
60920;BME280;59039;52.108;19.942;2023-03-14T03:44:04;98696.96;;;8.62;71.15
60920;BME280;59039;52.108;19.942;2023-03-14T03:46:29;98693.38;;;8.61;70.31
60920;BME280;59039;52.108;19.942;2023-03-14T03:48:56;98692.50;;;8.61;69.44
60920;BME280;59039;52.108;19.942;2023-03-14T03:51:25;98689.95;;;8.61;68.97
60920;BME280;59039;52.108;19.942;2023-03-14T03:53:50;98689.45;;;8.63;71.47
60920;BME280;59039;52.108;19.942;2023-03-14T03:56:16;98692.79;;;8.63;70.89
60920;BME280;59039;52.108;19.942;2023-03-14T03:58:42;98698.27;;;8.64;71.04
60920;BME280;59039;52.108;19.942;2023-03-14T04:01:08;98689.18;;;8.65;71.43
60920;BME280;59039;52.108;19.942;2023-03-14T04:03:34;98688.60;;;8.65;71.24
60920;BME280;59039;52.108;19.942;2023-03-14T04:06:09;98683.56;;;8.65;70.88
60920;BME280;59039;52.108;19.942;2023-03-14T04:08:37;98682.58;;;8.65;71.27
60920;BME280;59039;52.108;19.942;2023-03-14T04:11:05;98680.62;;;8.65;71.27
60920;BME280;59039;52.108;19.942;2023-03-14T04:13:30;98675.54;;;8.66;71.29
60920;BME280;59039;52.108;19.942;2023-03-14T04:15:59;98668.84;;;8.66;71.55
60920;BME280;59039;52.108;19.942;2023-03-14T04:18:24;98663.66;;;8.65;71.79
60920;BME280;59039;52.108;19.942;2023-03-14T04:20:54;98662.65;;;8.65;71.63
60920;BME280;59039;52.108;19.942;2023-03-14T04:23:21;98664.54;;;8.64;71.12
60920;BME280;59039;52.108;19.942;2023-03-14T04:25:47;98658.80;;;8.64;70.06
60920;BME280;59039;52.108;19.942;2023-03-14T04:28:12;98680.23;;;8.64;70.43
60920;BME280;59039;52.108;19.942;2023-03-14T04:30:38;98695.30;;;8.66;71.52
60920;BME280;59039;52.108;19.942;2023-03-14T04:33:03;98690.34;;;8.67;71.05
60920;BME280;59039;52.108;19.942;2023-03-14T04:35:30;98695.98;;;8.70;71.75
60920;BME280;59039;52.108;19.942;2023-03-14T04:37:56;98687.63;;;8.71;71.02
60920;BME280;59039;52.108;19.942;2023-03-14T04:40:21;98675.08;;;8.74;70.96
60920;BME280;59039;52.108;19.942;2023-03-14T04:42:47;98665.30;;;8.75;70.36
60920;BME280;59039;52.108;19.942;2023-03-14T04:45:12;98665.55;;;8.78;70.70
60920;BME280;59039;52.108;19.942;2023-03-14T04:47:38;98662.62;;;8.80;70.89
60920;BME280;59039;52.108;19.942;2023-03-14T04:50:03;98656.40;;;8.82;70.90
60920;BME280;59039;52.108;19.942;2023-03-14T04:52:34;98650.52;;;8.84;70.86
60920;BME280;59039;52.108;19.942;2023-03-14T04:55:00;98635.52;;;8.86;70.80
60920;BME280;59039;52.108;19.942;2023-03-14T04:57:25;98626.88;;;8.87;70.63
60920;BME280;59039;52.108;19.942;2023-03-14T04:59:51;98615.48;;;8.89;71.04
60920;BME280;59039;52.108;19.942;2023-03-14T05:02:16;98611.64;;;8.91;71.39
60920;BME280;59039;52.108;19.942;2023-03-14T05:04:42;98614.89;;;8.92;71.16
60920;BME280;59039;52.108;19.942;2023-03-14T05:07:07;98611.52;;;8.93;71.39
60920;BME280;59039;52.108;19.942;2023-03-14T05:09:32;98608.65;;;8.93;71.25
60920;BME280;59039;52.108;19.942;2023-03-14T05:11:58;98602.61;;;8.93;71.31
60920;BME280;59039;52.108;19.942;2023-03-14T05:14:23;98593.13;;;8.94;72.39
60920;BME280;59039;52.108;19.942;2023-03-14T05:16:49;98599.95;;;8.93;71.08
60920;BME280;59039;52.108;19.942;2023-03-14T05:19:14;98600.32;;;8.93;71.17
60920;BME280;59039;52.108;19.942;2023-03-14T05:21:39;98602.80;;;8.93;70.98
60920;BME280;59039;52.108;19.942;2023-03-14T05:24:05;98596.79;;;8.94;70.60
60920;BME280;59039;52.108;19.942;2023-03-14T05:26:30;98590.45;;;8.94;71.40
60920;BME280;59039;52.108;19.942;2023-03-14T05:28:56;98589.27;;;8.93;70.72
60920;BME280;59039;52.108;19.942;2023-03-14T05:31:21;98586.48;;;8.94;71.84
60920;BME280;59039;52.108;19.942;2023-03-14T05:34:00;98581.87;;;8.93;71.22
60920;BME280;59039;52.108;19.942;2023-03-14T05:36:25;98577.35;;;8.93;69.54
60920;BME280;59039;52.108;19.942;2023-03-14T05:38:50;98581.20;;;8.94;70.49
60920;BME280;59039;52.108;19.942;2023-03-14T05:41:16;98572.42;;;8.95;71.28
60920;BME280;59039;52.108;19.942;2023-03-14T05:43:50;98572.10;;;8.96;70.41
60920;BME280;59039;52.108;19.942;2023-03-14T05:46:15;98577.31;;;8.96;69.76
60920;BME280;59039;52.108;19.942;2023-03-14T05:48:40;98563.83;;;8.99;71.37
60920;BME280;59039;52.108;19.942;2023-03-14T05:51:06;98554.27;;;9.00;71.29
60920;BME280;59039;52.108;19.942;2023-03-14T05:53:32;98542.19;;;9.04;72.35
60920;BME280;59039;52.108;19.942;2023-03-14T05:55:57;98553.02;;;9.07;71.69
60920;BME280;59039;52.108;19.942;2023-03-14T05:58:23;98554.73;;;9.11;71.53
60920;BME280;59039;52.108;19.942;2023-03-14T06:00:49;98548.27;;;9.15;70.88
60920;BME280;59039;52.108;19.942;2023-03-14T06:03:14;98540.23;;;9.20;70.11
60920;BME280;59039;52.108;19.942;2023-03-14T06:05:39;98535.70;;;9.26;71.12
60920;BME280;59039;52.108;19.942;2023-03-14T06:08:05;98544.23;;;9.31;70.55
60920;BME280;59039;52.108;19.942;2023-03-14T06:10:30;98544.45;;;9.38;71.33
60920;BME280;59039;52.108;19.942;2023-03-14T06:12:56;98547.95;;;9.45;70.81
60920;BME280;59039;52.108;19.942;2023-03-14T06:15:21;98546.93;;;9.52;70.69
60920;BME280;59039;52.108;19.942;2023-03-14T06:17:47;98542.86;;;9.58;69.13
60920;BME280;59039;52.108;19.942;2023-03-14T06:20:13;98540.52;;;9.67;70.73
60920;BME280;59039;52.108;19.942;2023-03-14T06:22:38;98542.84;;;9.75;70.24
60920;BME280;59039;52.108;19.942;2023-03-14T06:25:04;98550.98;;;9.85;70.12
60920;BME280;59039;52.108;19.942;2023-03-14T06:27:30;98554.95;;;9.95;70.02
60920;BME280;59039;52.108;19.942;2023-03-14T06:29:56;98560.61;;;10.05;68.75
60920;BME280;59039;52.108;19.942;2023-03-14T06:32:21;98568.04;;;10.15;69.44
60920;BME280;59039;52.108;19.942;2023-03-14T06:34:46;98569.89;;;10.22;69.59
60920;BME280;59039;52.108;19.942;2023-03-14T06:37:12;98568.17;;;10.29;69.70
60920;BME280;59039;52.108;19.942;2023-03-14T06:39:37;98569.05;;;10.35;68.20
60920;BME280;59039;52.108;19.942;2023-03-14T06:42:03;98567.75;;;10.41;68.95
60920;BME280;59039;52.108;19.942;2023-03-14T06:44:28;98575.05;;;10.46;68.43
60920;BME280;59039;52.108;19.942;2023-03-14T06:46:54;98573.20;;;10.51;69.03
60920;BME280;59039;52.108;19.942;2023-03-14T06:49:19;98570.44;;;10.55;68.35
60920;BME280;59039;52.108;19.942;2023-03-14T06:51:44;98572.96;;;10.59;68.26
60920;BME280;59039;52.108;19.942;2023-03-14T06:54:10;98571.44;;;10.64;68.55
60920;BME280;59039;52.108;19.942;2023-03-14T06:56:38;98572.60;;;10.69;69.11
60920;BME280;59039;52.108;19.942;2023-03-14T06:59:03;98571.33;;;10.73;68.17
60920;BME280;59039;52.108;19.942;2023-03-14T07:01:30;98572.77;;;10.77;66.72
60920;BME280;59039;52.108;19.942;2023-03-14T07:03:56;98570.71;;;10.82;67.02
60920;BME280;59039;52.108;19.942;2023-03-14T07:06:21;98567.64;;;10.88;68.12
60920;BME280;59039;52.108;19.942;2023-03-14T07:08:47;98574.21;;;10.91;67.12
60920;BME280;59039;52.108;19.942;2023-03-14T07:11:13;98572.35;;;10.96;66.71
60920;BME280;59039;52.108;19.942;2023-03-14T07:13:38;98566.35;;;11.01;68.31
60920;BME280;59039;52.108;19.942;2023-03-14T07:16:05;98570.05;;;11.06;67.61
60920;BME280;59039;52.108;19.942;2023-03-14T07:18:31;98571.95;;;11.10;67.38
60920;BME280;59039;52.108;19.942;2023-03-14T07:20:56;98573.13;;;11.13;68.61
60920;BME280;59039;52.108;19.942;2023-03-14T07:23:22;98576.79;;;11.16;68.39
60920;BME280;59039;52.108;19.942;2023-03-14T07:25:47;98576.13;;;11.18;67.24
60920;BME280;59039;52.108;19.942;2023-03-14T07:28:13;98573.02;;;11.21;67.70
60920;BME280;59039;52.108;19.942;2023-03-14T07:30:40;98572.11;;;11.23;67.18
60920;BME280;59039;52.108;19.942;2023-03-14T07:33:06;98572.09;;;11.25;65.91
60920;BME280;59039;52.108;19.942;2023-03-14T07:35:31;98572.67;;;11.27;67.33
60920;BME280;59039;52.108;19.942;2023-03-14T07:38:04;98572.52;;;11.30;68.12
60920;BME280;59039;52.108;19.942;2023-03-14T07:40:32;98570.77;;;11.30;66.20
60920;BME280;59039;52.108;19.942;2023-03-14T07:42:57;98571.89;;;11.32;66.33
60920;BME280;59039;52.108;19.942;2023-03-14T07:45:45;98570.81;;;11.35;66.41
60920;BME280;59039;52.108;19.942;2023-03-14T07:48:10;98573.27;;;11.37;66.65
60920;BME280;59039;52.108;19.942;2023-03-14T07:50:36;98577.23;;;11.38;67.92
60920;BME280;59039;52.108;19.942;2023-03-14T07:53:02;98572.33;;;11.40;66.42
60920;BME280;59039;52.108;19.942;2023-03-14T07:55:27;98573.46;;;11.43;66.94
60920;BME280;59039;52.108;19.942;2023-03-14T07:57:55;98582.48;;;11.48;66.93
60920;BME280;59039;52.108;19.942;2023-03-14T08:00:21;98585.85;;;11.53;66.21
60920;BME280;59039;52.108;19.942;2023-03-14T08:02:46;98594.98;;;11.58;66.21
60920;BME280;59039;52.108;19.942;2023-03-14T08:05:11;98595.61;;;11.63;67.86
60920;BME280;59039;52.108;19.942;2023-03-14T08:07:37;98587.34;;;11.71;67.73
60920;BME280;59039;52.108;19.942;2023-03-14T08:10:03;98579.40;;;11.79;67.38
60920;BME280;59039;52.108;19.942;2023-03-14T08:12:29;98578.14;;;11.87;67.83
60920;BME280;59039;52.108;19.942;2023-03-14T08:14:54;98583.75;;;11.97;67.98
60920;BME280;59039;52.108;19.942;2023-03-14T08:17:20;98590.26;;;12.07;67.71
60920;BME280;59039;52.108;19.942;2023-03-14T08:19:45;98594.77;;;12.17;68.09
60920;BME280;59039;52.108;19.942;2023-03-14T08:22:10;98593.27;;;12.24;67.98
60920;BME280;59039;52.108;19.942;2023-03-14T08:24:36;98596.23;;;12.31;66.15
60920;BME280;59039;52.108;19.942;2023-03-14T08:27:01;98597.19;;;12.39;66.61
60920;BME280;59039;52.108;19.942;2023-03-14T08:29:26;98597.27;;;12.45;66.54
60920;BME280;59039;52.108;19.942;2023-03-14T08:31:52;98593.08;;;12.50;65.89
60920;BME280;59039;52.108;19.942;2023-03-14T08:34:17;98591.67;;;12.57;66.23
60920;BME280;59039;52.108;19.942;2023-03-14T08:36:43;98591.25;;;12.63;65.86
60920;BME280;59039;52.108;19.942;2023-03-14T08:39:08;98590.32;;;12.68;65.19
60920;BME280;59039;52.108;19.942;2023-03-14T08:41:34;98583.74;;;12.74;66.17
60920;BME280;59039;52.108;19.942;2023-03-14T08:44:00;98576.36;;;12.81;65.64
60920;BME280;59039;52.108;19.942;2023-03-14T08:46:25;98577.01;;;12.86;64.48
60920;BME280;59039;52.108;19.942;2023-03-14T08:48:50;98577.88;;;12.92;64.95
60920;BME280;59039;52.108;19.942;2023-03-14T08:51:16;98573.91;;;12.98;67.01
60920;BME280;59039;52.108;19.942;2023-03-14T08:53:41;98576.10;;;13.05;65.63
60920;BME280;59039;52.108;19.942;2023-03-14T08:56:07;98575.75;;;13.10;64.50
60920;BME280;59039;52.108;19.942;2023-03-14T08:58:33;98578.11;;;13.16;63.88
60920;BME280;59039;52.108;19.942;2023-03-14T09:00:58;98576.19;;;13.22;64.48
60920;BME280;59039;52.108;19.942;2023-03-14T09:03:25;98575.46;;;13.27;65.07
60920;BME280;59039;52.108;19.942;2023-03-14T09:05:51;98572.95;;;13.31;63.84
60920;BME280;59039;52.108;19.942;2023-03-14T09:08:17;98569.20;;;13.34;63.56
60920;BME280;59039;52.108;19.942;2023-03-14T09:10:42;98567.18;;;13.37;63.02
60920;BME280;59039;52.108;19.942;2023-03-14T09:13:08;98565.71;;;13.40;63.90
60920;BME280;59039;52.108;19.942;2023-03-14T09:15:33;98561.27;;;13.42;64.21
60920;BME280;59039;52.108;19.942;2023-03-14T09:17:58;98559.55;;;13.42;64.25
60920;BME280;59039;52.108;19.942;2023-03-14T09:20:24;98563.14;;;13.42;63.89
60920;BME280;59039;52.108;19.942;2023-03-14T09:22:49;98562.47;;;13.44;63.40
60920;BME280;59039;52.108;19.942;2023-03-14T09:25:23;98572.37;;;13.44;64.20
60920;BME280;59039;52.108;19.942;2023-03-14T09:27:48;98568.05;;;13.44;62.48
60920;BME280;59039;52.108;19.942;2023-03-14T09:30:14;98566.41;;;13.44;63.52
60920;BME280;59039;52.108;19.942;2023-03-14T09:32:39;98561.55;;;13.43;64.26
60920;BME280;59039;52.108;19.942;2023-03-14T09:35:04;98557.02;;;13.43;63.97
60920;BME280;59039;52.108;19.942;2023-03-14T09:37:30;98553.88;;;13.43;63.47
60920;BME280;59039;52.108;19.942;2023-03-14T09:39:55;98546.94;;;13.42;64.35
60920;BME280;59039;52.108;19.942;2023-03-14T09:42:26;98540.94;;;13.43;63.40
60920;BME280;59039;52.108;19.942;2023-03-14T09:44:59;98539.51;;;13.42;62.43
60920;BME280;59039;52.108;19.942;2023-03-14T09:47:34;98551.46;;;13.44;62.66
60920;BME280;59039;52.108;19.942;2023-03-14T09:50:00;98557.67;;;13.44;62.15
60920;BME280;59039;52.108;19.942;2023-03-14T09:52:35;98553.46;;;13.45;63.23
60920;BME280;59039;52.108;19.942;2023-03-14T09:55:07;98548.98;;;13.46;62.31
60920;BME280;59039;52.108;19.942;2023-03-14T09:57:40;98552.16;;;13.49;63.34
60920;BME280;59039;52.108;19.942;2023-03-14T10:00:15;98553.02;;;13.52;62.83
60920;BME280;59039;52.108;19.942;2023-03-14T10:02:52;98557.98;;;13.57;63.58
60920;BME280;59039;52.108;19.942;2023-03-14T10:05:20;98561.89;;;13.63;63.08
60920;BME280;59039;52.108;19.942;2023-03-14T10:07:46;98562.90;;;13.68;63.56
60920;BME280;59039;52.108;19.942;2023-03-14T10:10:18;98559.13;;;13.74;63.49
60920;BME280;59039;52.108;19.942;2023-03-14T10:12:45;98553.92;;;13.80;64.24
60920;BME280;59039;52.108;19.942;2023-03-14T10:15:12;98542.09;;;13.83;62.84
60920;BME280;59039;52.108;19.942;2023-03-14T10:17:40;98537.65;;;13.87;63.00
60920;BME280;59039;52.108;19.942;2023-03-14T10:20:07;98541.17;;;13.91;62.57
60920;BME280;59039;52.108;19.942;2023-03-14T10:22:50;98543.29;;;13.96;62.37
60920;BME280;59039;52.108;19.942;2023-03-14T10:25:27;98539.22;;;14.00;61.80
60920;BME280;59039;52.108;19.942;2023-03-14T10:27:52;98537.92;;;14.04;62.02
60920;BME280;59039;52.108;19.942;2023-03-14T10:30:45;98541.25;;;14.09;62.87
60920;BME280;59039;52.108;19.942;2023-03-14T10:33:21;98540.99;;;14.13;62.67
60920;BME280;59039;52.108;19.942;2023-03-14T10:35:56;98546.82;;;14.15;63.19
60920;BME280;59039;52.108;19.942;2023-03-14T10:38:25;98540.05;;;14.17;63.07
60920;BME280;59039;52.108;19.942;2023-03-14T10:40:52;98537.93;;;14.17;61.41
60920;BME280;59039;52.108;19.942;2023-03-14T10:43:38;98535.68;;;14.19;60.68
60920;BME280;59039;52.108;19.942;2023-03-14T10:46:11;98536.93;;;14.21;61.85
60920;BME280;59039;52.108;19.942;2023-03-14T10:48:39;98533.11;;;14.21;60.44
60920;BME280;59039;52.108;19.942;2023-03-14T10:51:11;98534.98;;;14.22;61.58
60920;BME280;59039;52.108;19.942;2023-03-14T10:54:04;98539.99;;;14.22;61.01
60920;BME280;59039;52.108;19.942;2023-03-14T10:56:37;98545.08;;;14.22;60.68
60920;BME280;59039;52.108;19.942;2023-03-14T10:59:06;98539.86;;;14.23;61.23
60920;BME280;59039;52.108;19.942;2023-03-14T11:04:38;98540.35;;;14.26;60.50
60920;BME280;59039;52.108;19.942;2023-03-14T11:07:21;98543.59;;;14.29;61.45
60920;BME280;59039;52.108;19.942;2023-03-14T11:12:38;98541.75;;;14.31;61.65
60920;BME280;59039;52.108;19.942;2023-03-14T11:17:49;98549.64;;;14.34;62.26
60920;BME280;59039;52.108;19.942;2023-03-14T11:20:27;98553.72;;;14.33;61.07
60920;BME280;59039;52.108;19.942;2023-03-14T11:23:04;98554.69;;;14.32;61.86
60920;BME280;59039;52.108;19.942;2023-03-14T11:31:27;98558.55;;;14.29;60.24
60920;BME280;59039;52.108;19.942;2023-03-14T11:36:39;98561.78;;;14.25;60.96
60920;BME280;59039;52.108;19.942;2023-03-14T11:39:14;98563.27;;;14.24;60.42
60920;BME280;59039;52.108;19.942;2023-03-14T11:41:43;98559.45;;;14.23;60.37
60920;BME280;59039;52.108;19.942;2023-03-14T11:44:23;98563.92;;;14.22;62.84
60920;BME280;59039;52.108;19.942;2023-03-14T11:46:55;98566.71;;;14.19;61.60
60920;BME280;59039;52.108;19.942;2023-03-14T11:53:01;98573.98;;;14.09;63.10
60920;BME280;59039;52.108;19.942;2023-03-14T11:55:36;98579.78;;;14.03;63.16
60920;BME280;59039;52.108;19.942;2023-03-14T11:58:19;98592.85;;;13.98;62.64
60920;BME280;59039;52.108;19.942;2023-03-14T12:00:47;98596.08;;;13.92;63.42
60920;BME280;59039;52.108;19.942;2023-03-14T12:06:17;98607.98;;;13.74;63.25
60920;BME280;59039;52.108;19.942;2023-03-14T12:08:49;98615.35;;;13.60;64.00
60920;BME280;59039;52.108;19.942;2023-03-14T12:11:40;98615.87;;;13.52;64.41
60920;BME280;59039;52.108;19.942;2023-03-14T12:14:21;98613.91;;;13.41;64.69
60920;BME280;59039;52.108;19.942;2023-03-14T12:16:48;98609.61;;;13.30;65.46
60920;BME280;59039;52.108;19.942;2023-03-14T12:21:58;98610.73;;;13.11;66.38
60920;BME280;59039;52.108;19.942;2023-03-14T12:24:29;98607.10;;;13.06;66.77
60920;BME280;59039;52.108;19.942;2023-03-14T12:27:00;98603.80;;;12.99;67.32
60920;BME280;59039;52.108;19.942;2023-03-14T12:29:26;98603.38;;;12.90;66.78
60920;BME280;59039;52.108;19.942;2023-03-14T12:32:09;98607.46;;;12.85;67.45
60920;BME280;59039;52.108;19.942;2023-03-14T12:34:40;98607.27;;;12.77;67.34
60920;BME280;59039;52.108;19.942;2023-03-14T12:37:10;98604.13;;;12.71;68.06
60920;BME280;59039;52.108;19.942;2023-03-14T12:43:03;98597.53;;;12.59;68.96
60920;BME280;59039;52.108;19.942;2023-03-14T12:45:32;98598.39;;;12.51;68.86
60920;BME280;59039;52.108;19.942;2023-03-14T12:50:46;98600.13;;;12.39;69.59
60920;BME280;59039;52.108;19.942;2023-03-14T12:53:52;98598.87;;;12.36;70.13
60920;BME280;59039;52.108;19.942;2023-03-14T13:01:54;98586.98;;;12.23;70.86
60920;BME280;59039;52.108;19.942;2023-03-14T13:04:27;98584.38;;;12.20;70.98
60920;BME280;59039;52.108;19.942;2023-03-14T13:06:54;98582.84;;;12.18;71.51
60920;BME280;59039;52.108;19.942;2023-03-14T13:09:35;98577.05;;;12.17;72.09
60920;BME280;59039;52.108;19.942;2023-03-14T13:12:09;98574.80;;;12.15;71.99
60920;BME280;59039;52.108;19.942;2023-03-14T13:14:40;98573.78;;;12.12;71.99
60920;BME280;59039;52.108;19.942;2023-03-14T13:17:10;98569.96;;;12.12;72.36
60920;BME280;59039;52.108;19.942;2023-03-14T13:19:36;98560.50;;;12.13;72.87
60920;BME280;59039;52.108;19.942;2023-03-14T13:22:04;98554.85;;;12.13;73.35
60920;BME280;59039;52.108;19.942;2023-03-14T13:24:33;98547.48;;;12.12;72.92
60920;BME280;59039;52.108;19.942;2023-03-14T13:26:59;98539.94;;;12.11;73.18
60920;BME280;59039;52.108;19.942;2023-03-14T13:29:27;98538.69;;;12.10;73.49
60920;BME280;59039;52.108;19.942;2023-03-14T13:31:55;98540.98;;;12.09;73.22
60920;BME280;59039;52.108;19.942;2023-03-14T13:34:21;98541.07;;;12.08;73.52
60920;BME280;59039;52.108;19.942;2023-03-14T13:36:46;98541.53;;;12.08;73.91
60920;BME280;59039;52.108;19.942;2023-03-14T13:39:20;98539.19;;;12.06;74.09
60920;BME280;59039;52.108;19.942;2023-03-14T13:41:46;98538.64;;;12.04;73.89
60920;BME280;59039;52.108;19.942;2023-03-14T13:44:31;98543.38;;;12.01;73.76
60920;BME280;59039;52.108;19.942;2023-03-14T13:47:01;98553.34;;;12.00;73.76